sensor_id;sensor_type;location;lat;lon;timestamp;P1;durP1;ratioP1;P2;durP2;ratioP2
79478;SDS011;68943;49.472;17.970;2024-02-04T00:00:48;4.13;;;2.97;;
79478;SDS011;68943;49.472;17.970;2024-02-04T00:03:14;3.88;;;2.50;;
79478;SDS011;68943;49.472;17.970;2024-02-04T00:05:40;3.33;;;2.78;;
79478;SDS011;68943;49.472;17.970;2024-02-04T00:08:06;3.40;;;2.53;;
79478;SDS011;68943;49.472;17.970;2024-02-04T00:10:33;3.88;;;2.22;;
79478;SDS011;68943;49.472;17.970;2024-02-04T00:12:59;3.90;;;2.90;;
79478;SDS011;68943;49.472;17.970;2024-02-04T00:15:25;4.60;;;2.63;;
79478;SDS011;68943;49.472;17.970;2024-02-04T00:17:52;3.45;;;2.70;;
79478;SDS011;68943;49.472;17.970;2024-02-04T00:20:18;2.33;;;1.88;;
79478;SDS011;68943;49.472;17.970;2024-02-04T00:22:44;3.33;;;1.92;;
79478;SDS011;68943;49.472;17.970;2024-02-04T00:25:10;2.28;;;1.95;;
79478;SDS011;68943;49.472;17.970;2024-02-04T00:27:37;2.63;;;1.20;;
79478;SDS011;68943;49.472;17.970;2024-02-04T00:30:03;2.17;;;1.60;;
79478;SDS011;68943;49.472;17.970;2024-02-04T00:32:29;4.10;;;2.20;;
79478;SDS011;68943;49.472;17.970;2024-02-04T00:34:55;3.60;;;2.53;;
79478;SDS011;68943;49.472;17.970;2024-02-04T00:37:22;5.03;;;2.50;;
79478;SDS011;68943;49.472;17.970;2024-02-04T00:39:48;4.22;;;2.53;;
79478;SDS011;68943;49.472;17.970;2024-02-04T00:42:14;5.38;;;2.53;;
79478;SDS011;68943;49.472;17.970;2024-02-04T00:44:40;3.83;;;2.78;;
79478;SDS011;68943;49.472;17.970;2024-02-04T00:47:06;2.75;;;2.05;;
79478;SDS011;68943;49.472;17.970;2024-02-04T00:49:32;6.65;;;3.15;;
79478;SDS011;68943;49.472;17.970;2024-02-04T00:51:58;3.60;;;2.45;;
79478;SDS011;68943;49.472;17.970;2024-02-04T00:54:24;3.70;;;2.55;;
79478;SDS011;68943;49.472;17.970;2024-02-04T00:56:51;5.30;;;3.00;;
79478;SDS011;68943;49.472;17.970;2024-02-04T00:59:17;3.28;;;2.83;;
79478;SDS011;68943;49.472;17.970;2024-02-04T01:01:43;3.80;;;2.97;;
79478;SDS011;68943;49.472;17.970;2024-02-04T01:04:09;3.08;;;2.40;;
79478;SDS011;68943;49.472;17.970;2024-02-04T01:06:35;4.10;;;2.40;;
79478;SDS011;68943;49.472;17.970;2024-02-04T01:09:01;4.05;;;2.92;;
79478;SDS011;68943;49.472;17.970;2024-02-04T01:11:27;4.18;;;1.88;;
79478;SDS011;68943;49.472;17.970;2024-02-04T01:13:54;3.03;;;2.55;;
79478;SDS011;68943;49.472;17.970;2024-02-04T01:16:20;3.88;;;3.03;;
79478;SDS011;68943;49.472;17.970;2024-02-04T01:18:46;3.28;;;2.03;;
79478;SDS011;68943;49.472;17.970;2024-02-04T01:21:12;3.90;;;2.47;;
79478;SDS011;68943;49.472;17.970;2024-02-04T01:23:38;4.25;;;2.78;;
79478;SDS011;68943;49.472;17.970;2024-02-04T01:26:04;3.08;;;1.73;;
79478;SDS011;68943;49.472;17.970;2024-02-04T01:28:30;3.13;;;2.17;;
79478;SDS011;68943;49.472;17.970;2024-02-04T01:30:56;3.13;;;2.33;;
79478;SDS011;68943;49.472;17.970;2024-02-04T01:33:25;2.50;;;2.03;;
79478;SDS011;68943;49.472;17.970;2024-02-04T01:35:51;2.70;;;2.25;;
79478;SDS011;68943;49.472;17.970;2024-02-04T01:38:18;3.10;;;2.00;;
79478;SDS011;68943;49.472;17.970;2024-02-04T01:40:44;2.88;;;1.85;;
79478;SDS011;68943;49.472;17.970;2024-02-04T01:43:11;2.60;;;1.83;;
79478;SDS011;68943;49.472;17.970;2024-02-04T01:45:37;2.53;;;1.45;;
79478;SDS011;68943;49.472;17.970;2024-02-04T01:48:04;3.28;;;2.80;;
79478;SDS011;68943;49.472;17.970;2024-02-04T01:50:30;3.25;;;1.70;;
79478;SDS011;68943;49.472;17.970;2024-02-04T01:52:56;2.75;;;1.73;;
79478;SDS011;68943;49.472;17.970;2024-02-04T01:55:22;2.97;;;2.13;;
79478;SDS011;68943;49.472;17.970;2024-02-04T01:57:48;2.65;;;1.38;;
79478;SDS011;68943;49.472;17.970;2024-02-04T02:00:15;3.50;;;2.15;;
79478;SDS011;68943;49.472;17.970;2024-02-04T02:02:43;2.63;;;2.15;;
79478;SDS011;68943;49.472;17.970;2024-02-04T02:05:11;3.33;;;2.47;;
79478;SDS011;68943;49.472;17.970;2024-02-04T02:07:40;2.92;;;2.05;;
79478;SDS011;68943;49.472;17.970;2024-02-04T02:10:09;2.35;;;1.75;;
79478;SDS011;68943;49.472;17.970;2024-02-04T02:12:45;4.90;;;2.05;;
79478;SDS011;68943;49.472;17.970;2024-02-04T02:15:16;2.40;;;1.90;;
79478;SDS011;68943;49.472;17.970;2024-02-04T02:17:51;2.03;;;1.83;;
79478;SDS011;68943;49.472;17.970;2024-02-04T02:20:23;3.67;;;2.53;;
79478;SDS011;68943;49.472;17.970;2024-02-04T02:23:08;3.13;;;2.25;;
79478;SDS011;68943;49.472;17.970;2024-02-04T02:25:36;2.92;;;1.83;;
79478;SDS011;68943;49.472;17.970;2024-02-04T02:28:02;2.83;;;2.25;;
79478;SDS011;68943;49.472;17.970;2024-02-04T02:30:28;3.28;;;2.45;;
79478;SDS011;68943;49.472;17.970;2024-02-04T02:32:55;3.33;;;1.83;;
79478;SDS011;68943;49.472;17.970;2024-02-04T02:35:21;3.35;;;3.03;;
79478;SDS011;68943;49.472;17.970;2024-02-04T02:42:46;3.20;;;2.28;;
79478;SDS011;68943;49.472;17.970;2024-02-04T02:45:12;2.88;;;2.40;;
79478;SDS011;68943;49.472;17.970;2024-02-04T02:47:39;2.38;;;2.17;;
79478;SDS011;68943;49.472;17.970;2024-02-04T02:50:06;3.60;;;2.38;;
79478;SDS011;68943;49.472;17.970;2024-02-04T02:52:32;2.58;;;2.30;;
79478;SDS011;68943;49.472;17.970;2024-02-04T02:54:58;4.18;;;2.30;;
79478;SDS011;68943;49.472;17.970;2024-02-04T02:57:24;2.00;;;1.30;;
79478;SDS011;68943;49.472;17.970;2024-02-04T02:59:51;3.05;;;1.73;;
79478;SDS011;68943;49.472;17.970;2024-02-04T03:02:17;5.22;;;1.35;;
79478;SDS011;68943;49.472;17.970;2024-02-04T03:04:43;2.45;;;1.38;;
79478;SDS011;68943;49.472;17.970;2024-02-04T03:07:09;2.78;;;2.40;;
79478;SDS011;68943;49.472;17.970;2024-02-04T03:09:35;3.13;;;1.83;;
79478;SDS011;68943;49.472;17.970;2024-02-04T03:12:01;2.25;;;1.60;;
79478;SDS011;68943;49.472;17.970;2024-02-04T03:14:28;2.88;;;2.58;;
79478;SDS011;68943;49.472;17.970;2024-02-04T03:16:54;2.15;;;1.60;;
79478;SDS011;68943;49.472;17.970;2024-02-04T03:19:20;1.77;;;1.33;;
79478;SDS011;68943;49.472;17.970;2024-02-04T03:21:47;2.92;;;2.63;;
79478;SDS011;68943;49.472;17.970;2024-02-04T03:24:13;1.73;;;1.13;;
79478;SDS011;68943;49.472;17.970;2024-02-04T03:26:39;1.35;;;1.00;;
79478;SDS011;68943;49.472;17.970;2024-02-04T03:29:05;2.13;;;1.50;;
79478;SDS011;68943;49.472;17.970;2024-02-04T03:31:31;1.88;;;1.20;;
79478;SDS011;68943;49.472;17.970;2024-02-04T03:33:57;1.48;;;1.10;;
79478;SDS011;68943;49.472;17.970;2024-02-04T03:36:24;2.38;;;1.67;;
79478;SDS011;68943;49.472;17.970;2024-02-04T03:38:50;2.83;;;1.65;;
79478;SDS011;68943;49.472;17.970;2024-02-04T03:41:16;2.20;;;1.38;;
79478;SDS011;68943;49.472;17.970;2024-02-04T03:43:43;2.17;;;1.40;;
79478;SDS011;68943;49.472;17.970;2024-02-04T03:46:12;1.90;;;1.38;;
79478;SDS011;68943;49.472;17.970;2024-02-04T03:48:39;2.13;;;1.10;;
79478;SDS011;68943;49.472;17.970;2024-02-04T03:51:05;1.77;;;1.48;;
79478;SDS011;68943;49.472;17.970;2024-02-04T03:53:31;2.08;;;1.38;;
79478;SDS011;68943;49.472;17.970;2024-02-04T03:55:57;3.72;;;1.38;;
79478;SDS011;68943;49.472;17.970;2024-02-04T03:58:24;2.20;;;1.42;;
79478;SDS011;68943;49.472;17.970;2024-02-04T04:00:57;2.22;;;1.08;;
79478;SDS011;68943;49.472;17.970;2024-02-04T04:03:24;1.48;;;1.27;;
79478;SDS011;68943;49.472;17.970;2024-02-04T04:05:50;1.83;;;1.05;;
79478;SDS011;68943;49.472;17.970;2024-02-04T04:08:16;1.98;;;1.55;;
79478;SDS011;68943;49.472;17.970;2024-02-04T04:10:43;2.05;;;1.40;;
79478;SDS011;68943;49.472;17.970;2024-02-04T04:13:10;3.25;;;1.23;;
79478;SDS011;68943;49.472;17.970;2024-02-04T04:15:36;3.35;;;1.70;;
79478;SDS011;68943;49.472;17.970;2024-02-04T04:18:02;1.85;;;1.60;;
79478;SDS011;68943;49.472;17.970;2024-02-04T04:20:29;1.95;;;1.30;;
79478;SDS011;68943;49.472;17.970;2024-02-04T04:22:55;2.08;;;1.30;;
79478;SDS011;68943;49.472;17.970;2024-02-04T04:25:21;1.83;;;1.20;;
79478;SDS011;68943;49.472;17.970;2024-02-04T04:27:47;1.50;;;1.00;;
79478;SDS011;68943;49.472;17.970;2024-02-04T04:30:13;1.77;;;1.42;;
79478;SDS011;68943;49.472;17.970;2024-02-04T04:32:39;2.05;;;1.63;;
79478;SDS011;68943;49.472;17.970;2024-02-04T04:35:05;2.72;;;1.48;;
79478;SDS011;68943;49.472;17.970;2024-02-04T04:37:31;4.45;;;1.63;;
79478;SDS011;68943;49.472;17.970;2024-02-04T04:39:58;1.90;;;1.60;;
79478;SDS011;68943;49.472;17.970;2024-02-04T04:42:24;2.17;;;1.27;;
79478;SDS011;68943;49.472;17.970;2024-02-04T04:44:50;1.58;;;1.48;;
79478;SDS011;68943;49.472;17.970;2024-02-04T04:47:16;4.07;;;1.40;;
79478;SDS011;68943;49.472;17.970;2024-02-04T04:49:42;1.45;;;0.73;;
79478;SDS011;68943;49.472;17.970;2024-02-04T04:52:08;2.30;;;1.02;;
79478;SDS011;68943;49.472;17.970;2024-02-04T04:54:34;2.42;;;1.52;;
79478;SDS011;68943;49.472;17.970;2024-02-04T04:57:00;1.48;;;0.63;;
79478;SDS011;68943;49.472;17.970;2024-02-04T04:59:27;1.98;;;1.35;;
79478;SDS011;68943;49.472;17.970;2024-02-04T05:01:53;2.03;;;1.35;;
79478;SDS011;68943;49.472;17.970;2024-02-04T05:04:19;1.92;;;1.33;;
79478;SDS011;68943;49.472;17.970;2024-02-04T05:06:48;1.30;;;1.00;;
79478;SDS011;68943;49.472;17.970;2024-02-04T05:09:14;2.25;;;1.15;;
79478;SDS011;68943;49.472;17.970;2024-02-04T05:11:41;1.58;;;0.73;;
79478;SDS011;68943;49.472;17.970;2024-02-04T05:14:07;1.70;;;1.38;;
79478;SDS011;68943;49.472;17.970;2024-02-04T05:16:33;1.48;;;0.80;;
79478;SDS011;68943;49.472;17.970;2024-02-04T05:19:00;1.58;;;1.15;;
79478;SDS011;68943;49.472;17.970;2024-02-04T05:21:27;1.73;;;1.17;;
79478;SDS011;68943;49.472;17.970;2024-02-04T05:23:53;2.13;;;1.65;;
79478;SDS011;68943;49.472;17.970;2024-02-04T05:26:19;1.67;;;1.08;;
79478;SDS011;68943;49.472;17.970;2024-02-04T05:28:45;1.55;;;1.00;;
79478;SDS011;68943;49.472;17.970;2024-02-04T05:31:11;2.13;;;1.00;;
79478;SDS011;68943;49.472;17.970;2024-02-04T05:33:37;3.45;;;1.40;;
79478;SDS011;68943;49.472;17.970;2024-02-04T05:36:03;1.70;;;1.08;;
79478;SDS011;68943;49.472;17.970;2024-02-04T05:38:30;1.92;;;1.13;;
79478;SDS011;68943;49.472;17.970;2024-02-04T05:40:56;1.92;;;1.38;;
79478;SDS011;68943;49.472;17.970;2024-02-04T05:43:22;2.17;;;1.30;;
79478;SDS011;68943;49.472;17.970;2024-02-04T05:45:48;2.00;;;1.60;;
79478;SDS011;68943;49.472;17.970;2024-02-04T05:48:14;2.20;;;1.38;;
79478;SDS011;68943;49.472;17.970;2024-02-04T05:50:40;1.45;;;1.08;;
79478;SDS011;68943;49.472;17.970;2024-02-04T05:53:07;1.77;;;0.95;;
79478;SDS011;68943;49.472;17.970;2024-02-04T05:55:33;1.40;;;0.90;;
79478;SDS011;68943;49.472;17.970;2024-02-04T05:57:59;7.32;;;0.90;;
79478;SDS011;68943;49.472;17.970;2024-02-04T06:00:25;2.15;;;0.93;;
79478;SDS011;68943;49.472;17.970;2024-02-04T06:02:51;1.52;;;1.08;;
79478;SDS011;68943;49.472;17.970;2024-02-04T06:05:18;2.20;;;0.85;;
79478;SDS011;68943;49.472;17.970;2024-02-04T06:07:44;1.58;;;1.10;;
79478;SDS011;68943;49.472;17.970;2024-02-04T06:10:10;1.63;;;0.98;;
79478;SDS011;68943;49.472;17.970;2024-02-04T06:12:36;0.93;;;0.68;;
79478;SDS011;68943;49.472;17.970;2024-02-04T06:15:03;2.65;;;0.70;;
79478;SDS011;68943;49.472;17.970;2024-02-04T06:17:29;2.28;;;0.90;;
79478;SDS011;68943;49.472;17.970;2024-02-04T06:19:55;1.95;;;1.15;;
79478;SDS011;68943;49.472;17.970;2024-02-04T06:22:22;1.67;;;0.80;;
79478;SDS011;68943;49.472;17.970;2024-02-04T06:24:49;1.70;;;1.15;;
79478;SDS011;68943;49.472;17.970;2024-02-04T06:27:15;1.10;;;0.77;;
79478;SDS011;68943;49.472;17.970;2024-02-04T06:29:42;1.90;;;0.88;;
79478;SDS011;68943;49.472;17.970;2024-02-04T06:32:08;1.90;;;1.00;;
79478;SDS011;68943;49.472;17.970;2024-02-04T06:34:34;2.30;;;1.15;;
79478;SDS011;68943;49.472;17.970;2024-02-04T06:37:00;2.60;;;1.90;;
79478;SDS011;68943;49.472;17.970;2024-02-04T06:39:26;1.30;;;1.15;;
79478;SDS011;68943;49.472;17.970;2024-02-04T06:41:52;2.83;;;1.63;;
79478;SDS011;68943;49.472;17.970;2024-02-04T06:44:18;3.25;;;1.55;;
79478;SDS011;68943;49.472;17.970;2024-02-04T06:46:44;1.90;;;1.15;;
79478;SDS011;68943;49.472;17.970;2024-02-04T06:49:11;1.88;;;1.15;;
79478;SDS011;68943;49.472;17.970;2024-02-04T06:51:43;1.77;;;0.70;;
79478;SDS011;68943;49.472;17.970;2024-02-04T06:54:09;1.60;;;1.13;;
79478;SDS011;68943;49.472;17.970;2024-02-04T06:56:35;1.70;;;0.93;;
79478;SDS011;68943;49.472;17.970;2024-02-04T06:59:04;1.27;;;1.00;;
79478;SDS011;68943;49.472;17.970;2024-02-04T07:01:31;2.05;;;1.20;;
79478;SDS011;68943;49.472;17.970;2024-02-04T07:03:57;1.90;;;0.80;;
79478;SDS011;68943;49.472;17.970;2024-02-04T07:06:23;1.83;;;0.85;;
79478;SDS011;68943;49.472;17.970;2024-02-04T07:08:49;1.33;;;1.02;;
79478;SDS011;68943;49.472;17.970;2024-02-04T07:11:16;1.83;;;0.85;;
79478;SDS011;68943;49.472;17.970;2024-02-04T07:13:42;2.78;;;1.52;;
79478;SDS011;68943;49.472;17.970;2024-02-04T07:16:08;3.08;;;1.63;;
79478;SDS011;68943;49.472;17.970;2024-02-04T07:18:34;3.45;;;1.58;;
79478;SDS011;68943;49.472;17.970;2024-02-04T07:21:00;2.30;;;1.38;;
79478;SDS011;68943;49.472;17.970;2024-02-04T07:23:26;2.13;;;1.10;;
79478;SDS011;68943;49.472;17.970;2024-02-04T07:25:52;2.63;;;1.45;;
79478;SDS011;68943;49.472;17.970;2024-02-04T07:28:18;1.30;;;1.20;;
79478;SDS011;68943;49.472;17.970;2024-02-04T07:30:45;1.35;;;1.13;;
79478;SDS011;68943;49.472;17.970;2024-02-04T07:33:11;4.28;;;1.52;;
79478;SDS011;68943;49.472;17.970;2024-02-04T07:35:37;1.98;;;1.23;;
79478;SDS011;68943;49.472;17.970;2024-02-04T07:38:03;2.28;;;1.13;;
79478;SDS011;68943;49.472;17.970;2024-02-04T07:40:29;1.25;;;0.80;;
79478;SDS011;68943;49.472;17.970;2024-02-04T07:42:56;1.67;;;0.93;;
79478;SDS011;68943;49.472;17.970;2024-02-04T07:45:22;1.10;;;0.85;;
79478;SDS011;68943;49.472;17.970;2024-02-04T07:47:48;2.17;;;1.40;;
79478;SDS011;68943;49.472;17.970;2024-02-04T07:50:14;2.00;;;1.52;;
79478;SDS011;68943;49.472;17.970;2024-02-04T07:52:40;1.42;;;0.93;;
79478;SDS011;68943;49.472;17.970;2024-02-04T07:55:07;1.70;;;0.90;;
79478;SDS011;68943;49.472;17.970;2024-02-04T07:57:33;0.65;;;0.55;;
79478;SDS011;68943;49.472;17.970;2024-02-04T07:59:59;3.25;;;1.38;;
79478;SDS011;68943;49.472;17.970;2024-02-04T08:02:25;1.65;;;1.20;;
79478;SDS011;68943;49.472;17.970;2024-02-04T08:04:51;1.55;;;0.98;;
79478;SDS011;68943;49.472;17.970;2024-02-04T08:07:17;1.08;;;0.93;;
79478;SDS011;68943;49.472;17.970;2024-02-04T08:09:45;1.10;;;0.82;;
79478;SDS011;68943;49.472;17.970;2024-02-04T08:12:11;1.90;;;1.67;;
79478;SDS011;68943;49.472;17.970;2024-02-04T08:14:38;1.52;;;1.25;;
79478;SDS011;68943;49.472;17.970;2024-02-04T08:17:04;1.92;;;1.17;;
79478;SDS011;68943;49.472;17.970;2024-02-04T08:19:30;0.75;;;0.50;;
79478;SDS011;68943;49.472;17.970;2024-02-04T08:21:56;1.42;;;0.82;;
79478;SDS011;68943;49.472;17.970;2024-02-04T08:24:23;0.73;;;0.73;;
79478;SDS011;68943;49.472;17.970;2024-02-04T08:26:49;3.58;;;0.77;;
79478;SDS011;68943;49.472;17.970;2024-02-04T08:29:15;1.17;;;0.60;;
79478;SDS011;68943;49.472;17.970;2024-02-04T08:31:45;1.10;;;0.60;;
79478;SDS011;68943;49.472;17.970;2024-02-04T08:34:11;0.80;;;0.52;;
79478;SDS011;68943;49.472;17.970;2024-02-04T08:36:40;2.03;;;1.02;;
79478;SDS011;68943;49.472;17.970;2024-02-04T08:39:06;1.40;;;1.00;;
79478;SDS011;68943;49.472;17.970;2024-02-04T08:41:32;0.90;;;0.75;;
79478;SDS011;68943;49.472;17.970;2024-02-04T08:43:58;1.25;;;0.70;;
79478;SDS011;68943;49.472;17.970;2024-02-04T08:46:24;1.20;;;0.63;;
79478;SDS011;68943;49.472;17.970;2024-02-04T08:48:50;1.58;;;1.02;;
79478;SDS011;68943;49.472;17.970;2024-02-04T08:51:16;2.58;;;1.25;;
79478;SDS011;68943;49.472;17.970;2024-02-04T08:53:44;3.35;;;2.45;;
79478;SDS011;68943;49.472;17.970;2024-02-04T08:56:10;5.85;;;2.47;;
79478;SDS011;68943;49.472;17.970;2024-02-04T08:58:36;56.22;;;16.08;;
79478;SDS011;68943;49.472;17.970;2024-02-04T09:01:04;23.83;;;12.43;;
79478;SDS011;68943;49.472;17.970;2024-02-04T09:03:30;9.43;;;5.00;;
79478;SDS011;68943;49.472;17.970;2024-02-04T09:05:56;35.15;;;24.92;;
79478;SDS011;68943;49.472;17.970;2024-02-04T09:08:23;2.60;;;1.50;;
79478;SDS011;68943;49.472;17.970;2024-02-04T09:10:49;28.88;;;18.15;;
79478;SDS011;68943;49.472;17.970;2024-02-04T09:13:15;2.58;;;1.67;;
79478;SDS011;68943;49.472;17.970;2024-02-04T09:15:41;5.50;;;5.00;;
79478;SDS011;68943;49.472;17.970;2024-02-04T09:18:07;2.85;;;2.17;;
79478;SDS011;68943;49.472;17.970;2024-02-04T09:20:33;2.47;;;1.52;;
79478;SDS011;68943;49.472;17.970;2024-02-04T09:23:00;6.30;;;5.75;;
79478;SDS011;68943;49.472;17.970;2024-02-04T09:25:26;3.70;;;3.40;;
79478;SDS011;68943;49.472;17.970;2024-02-04T09:27:52;4.35;;;3.78;;
79478;SDS011;68943;49.472;17.970;2024-02-04T09:30:18;3.25;;;1.30;;
79478;SDS011;68943;49.472;17.970;2024-02-04T09:32:44;2.03;;;1.17;;
79478;SDS011;68943;49.472;17.970;2024-02-04T09:35:11;2.67;;;1.90;;
79478;SDS011;68943;49.472;17.970;2024-02-04T09:37:37;1.88;;;0.85;;
79478;SDS011;68943;49.472;17.970;2024-02-04T09:40:03;2.28;;;1.85;;
79478;SDS011;68943;49.472;17.970;2024-02-04T09:42:29;5.43;;;3.75;;
79478;SDS011;68943;49.472;17.970;2024-02-04T09:44:56;1.70;;;1.20;;
79478;SDS011;68943;49.472;17.970;2024-02-04T09:47:23;2.83;;;1.70;;
79478;SDS011;68943;49.472;17.970;2024-02-04T09:49:49;7.65;;;6.95;;
79478;SDS011;68943;49.472;17.970;2024-02-04T09:52:18;8.55;;;6.13;;
79478;SDS011;68943;49.472;17.970;2024-02-04T09:54:47;5.00;;;3.25;;
79478;SDS011;68943;49.472;17.970;2024-02-04T09:57:14;5.70;;;5.13;;
79478;SDS011;68943;49.472;17.970;2024-02-04T09:59:40;5.25;;;2.97;;
79478;SDS011;68943;49.472;17.970;2024-02-04T10:02:08;79.53;;;53.00;;
79478;SDS011;68943;49.472;17.970;2024-02-04T10:04:34;7.03;;;4.05;;
79478;SDS011;68943;49.472;17.970;2024-02-04T10:07:00;51.05;;;33.55;;
79478;SDS011;68943;49.472;17.970;2024-02-04T10:09:26;6.90;;;4.80;;
79478;SDS011;68943;49.472;17.970;2024-02-04T10:11:52;17.23;;;12.75;;
79478;SDS011;68943;49.472;17.970;2024-02-04T10:14:19;20.77;;;16.63;;
79478;SDS011;68943;49.472;17.970;2024-02-04T10:16:45;13.68;;;10.10;;
79478;SDS011;68943;49.472;17.970;2024-02-04T10:19:11;27.55;;;15.90;;
79478;SDS011;68943;49.472;17.970;2024-02-04T10:21:37;53.25;;;30.98;;
79478;SDS011;68943;49.472;17.970;2024-02-04T10:24:05;52.33;;;33.65;;
79478;SDS011;68943;49.472;17.970;2024-02-04T10:26:32;23.73;;;14.80;;
79478;SDS011;68943;49.472;17.970;2024-02-04T10:29:01;78.75;;;47.22;;
79478;SDS011;68943;49.472;17.970;2024-02-04T10:31:27;37.83;;;22.88;;
79478;SDS011;68943;49.472;17.970;2024-02-04T10:33:54;9.45;;;6.63;;
79478;SDS011;68943;49.472;17.970;2024-02-04T10:36:20;45.13;;;30.00;;
79478;SDS011;68943;49.472;17.970;2024-02-04T10:38:46;9.32;;;6.28;;
79478;SDS011;68943;49.472;17.970;2024-02-04T10:41:16;5.93;;;3.83;;
79478;SDS011;68943;49.472;17.970;2024-02-04T10:43:43;6.97;;;4.63;;
79478;SDS011;68943;49.472;17.970;2024-02-04T10:46:14;4.60;;;3.72;;
79478;SDS011;68943;49.472;17.970;2024-02-04T10:48:42;8.48;;;7.68;;
79478;SDS011;68943;49.472;17.970;2024-02-04T10:51:13;30.30;;;18.65;;
79478;SDS011;68943;49.472;17.970;2024-02-04T10:53:42;12.60;;;8.52;;
79478;SDS011;68943;49.472;17.970;2024-02-04T10:56:13;85.13;;;49.72;;
79478;SDS011;68943;49.472;17.970;2024-02-04T10:58:39;78.18;;;42.65;;
79478;SDS011;68943;49.472;17.970;2024-02-04T11:01:06;31.17;;;17.75;;
79478;SDS011;68943;49.472;17.970;2024-02-04T11:03:32;30.65;;;16.83;;
79478;SDS011;68943;49.472;17.970;2024-02-04T11:05:59;39.45;;;21.60;;
79478;SDS011;68943;49.472;17.970;2024-02-04T11:08:25;40.20;;;23.33;;
79478;SDS011;68943;49.472;17.970;2024-02-04T11:10:51;23.45;;;13.15;;
79478;SDS011;68943;49.472;17.970;2024-02-04T11:13:17;31.10;;;11.52;;
79478;SDS011;68943;49.472;17.970;2024-02-04T11:15:46;140.85;;;69.40;;
79478;SDS011;68943;49.472;17.970;2024-02-04T11:18:25;41.65;;;22.73;;
79478;SDS011;68943;49.472;17.970;2024-02-04T11:26:03;63.88;;;30.30;;
79478;SDS011;68943;49.472;17.970;2024-02-04T11:28:30;127.65;;;64.03;;
79478;SDS011;68943;49.472;17.970;2024-02-04T11:30:57;101.90;;;49.63;;
79478;SDS011;68943;49.472;17.970;2024-02-04T11:33:23;29.08;;;14.30;;
79478;SDS011;68943;49.472;17.970;2024-02-04T11:35:58;33.50;;;19.20;;
79478;SDS011;68943;49.472;17.970;2024-02-04T11:38:32;84.72;;;43.83;;
79478;SDS011;68943;49.472;17.970;2024-02-04T11:40:59;42.95;;;20.85;;
79478;SDS011;68943;49.472;17.970;2024-02-04T11:43:25;72.78;;;40.78;;
79478;SDS011;68943;49.472;17.970;2024-02-04T11:45:51;36.65;;;25.85;;
79478;SDS011;68943;49.472;17.970;2024-02-04T11:48:19;12.07;;;10.43;;
79478;SDS011;68943;49.472;17.970;2024-02-04T11:50:51;4.28;;;2.97;;
79478;SDS011;68943;49.472;17.970;2024-02-04T11:53:18;8.07;;;7.28;;
79478;SDS011;68943;49.472;17.970;2024-02-04T11:55:44;5.25;;;4.75;;
79478;SDS011;68943;49.472;17.970;2024-02-04T11:58:11;6.93;;;6.15;;
79478;SDS011;68943;49.472;17.970;2024-02-04T12:00:37;4.72;;;3.67;;
79478;SDS011;68943;49.472;17.970;2024-02-04T12:03:04;5.60;;;3.28;;
79478;SDS011;68943;49.472;17.970;2024-02-04T12:05:34;2.10;;;1.90;;
79478;SDS011;68943;49.472;17.970;2024-02-04T12:08:04;1.80;;;1.25;;
79478;SDS011;68943;49.472;17.970;2024-02-04T12:10:31;2.45;;;0.47;;
79478;SDS011;68943;49.472;17.970;2024-02-04T12:12:59;1.60;;;0.80;;
79478;SDS011;68943;49.472;17.970;2024-02-04T12:15:28;1.65;;;1.55;;
79478;SDS011;68943;49.472;17.970;2024-02-04T12:17:55;2.30;;;1.27;;
79478;SDS011;68943;49.472;17.970;2024-02-04T12:20:21;1.85;;;1.55;;
79478;SDS011;68943;49.472;17.970;2024-02-04T12:22:47;1.35;;;0.80;;
79478;SDS011;68943;49.472;17.970;2024-02-04T12:25:14;0.77;;;0.52;;
79478;SDS011;68943;49.472;17.970;2024-02-04T12:27:40;2.45;;;1.00;;
79478;SDS011;68943;49.472;17.970;2024-02-04T12:30:07;1.40;;;0.88;;
79478;SDS011;68943;49.472;17.970;2024-02-04T12:32:34;2.25;;;1.05;;
79478;SDS011;68943;49.472;17.970;2024-02-04T12:35:01;0.77;;;0.77;;
79478;SDS011;68943;49.472;17.970;2024-02-04T12:37:28;0.90;;;0.57;;
79478;SDS011;68943;49.472;17.970;2024-02-04T12:39:55;0.93;;;0.40;;
79478;SDS011;68943;49.472;17.970;2024-02-04T12:42:21;2.28;;;1.30;;
79478;SDS011;68943;49.472;17.970;2024-02-04T12:44:48;1.27;;;0.73;;
79478;SDS011;68943;49.472;17.970;2024-02-04T12:47:14;1.77;;;0.70;;
79478;SDS011;68943;49.472;17.970;2024-02-04T12:49:44;3.00;;;1.90;;
79478;SDS011;68943;49.472;17.970;2024-02-04T12:52:10;2.28;;;1.00;;
79478;SDS011;68943;49.472;17.970;2024-02-04T12:54:42;1.23;;;1.02;;
79478;SDS011;68943;49.472;17.970;2024-02-04T12:57:09;2.83;;;1.35;;
79478;SDS011;68943;49.472;17.970;2024-02-04T12:59:37;2.63;;;1.38;;
79478;SDS011;68943;49.472;17.970;2024-02-04T13:02:05;3.72;;;2.53;;
79478;SDS011;68943;49.472;17.970;2024-02-04T13:04:34;4.00;;;1.20;;
79478;SDS011;68943;49.472;17.970;2024-02-04T13:07:01;5.95;;;1.95;;
79478;SDS011;68943;49.472;17.970;2024-02-04T13:09:27;3.50;;;2.13;;
79478;SDS011;68943;49.472;17.970;2024-02-04T13:12:02;2.90;;;1.52;;
79478;SDS011;68943;49.472;17.970;2024-02-04T13:14:28;1.55;;;0.77;;
79478;SDS011;68943;49.472;17.970;2024-02-04T13:16:54;2.47;;;1.63;;
79478;SDS011;68943;49.472;17.970;2024-02-04T13:19:20;1.02;;;0.90;;
79478;SDS011;68943;49.472;17.970;2024-02-04T13:21:46;0.95;;;0.47;;
79478;SDS011;68943;49.472;17.970;2024-02-04T13:24:12;1.90;;;1.02;;
79478;SDS011;68943;49.472;17.970;2024-02-04T13:26:39;1.85;;;1.13;;
79478;SDS011;68943;49.472;17.970;2024-02-04T13:29:05;1.20;;;0.95;;
79478;SDS011;68943;49.472;17.970;2024-02-04T13:31:31;2.10;;;1.15;;
79478;SDS011;68943;49.472;17.970;2024-02-04T13:33:57;1.10;;;0.77;;
79478;SDS011;68943;49.472;17.970;2024-02-04T13:36:23;0.75;;;0.55;;
79478;SDS011;68943;49.472;17.970;2024-02-04T13:38:49;1.17;;;0.88;;
79478;SDS011;68943;49.472;17.970;2024-02-04T13:41:16;1.50;;;0.73;;
79478;SDS011;68943;49.472;17.970;2024-02-04T13:43:42;1.50;;;1.33;;
79478;SDS011;68943;49.472;17.970;2024-02-04T13:46:09;1.67;;;0.82;;
79478;SDS011;68943;49.472;17.970;2024-02-04T13:48:35;0.93;;;0.82;;
79478;SDS011;68943;49.472;17.970;2024-02-04T13:51:01;1.02;;;0.55;;
79478;SDS011;68943;49.472;17.970;2024-02-04T13:53:27;3.50;;;1.33;;
79478;SDS011;68943;49.472;17.970;2024-02-04T13:55:53;1.10;;;0.43;;
79478;SDS011;68943;49.472;17.970;2024-02-04T13:58:19;2.65;;;1.30;;
79478;SDS011;68943;49.472;17.970;2024-02-04T14:00:48;2.25;;;1.55;;
79478;SDS011;68943;49.472;17.970;2024-02-04T14:03:14;2.10;;;0.93;;
79478;SDS011;68943;49.472;17.970;2024-02-04T14:05:40;5.28;;;4.07;;
79478;SDS011;68943;49.472;17.970;2024-02-04T14:08:06;2.97;;;1.70;;
79478;SDS011;68943;49.472;17.970;2024-02-04T14:10:33;3.40;;;1.85;;
79478;SDS011;68943;49.472;17.970;2024-02-04T14:12:59;1.50;;;0.75;;
79478;SDS011;68943;49.472;17.970;2024-02-04T14:15:25;2.35;;;0.90;;
79478;SDS011;68943;49.472;17.970;2024-02-04T14:17:51;1.45;;;1.30;;
79478;SDS011;68943;49.472;17.970;2024-02-04T14:20:17;1.83;;;0.85;;
79478;SDS011;68943;49.472;17.970;2024-02-04T14:22:44;1.48;;;0.63;;
79478;SDS011;68943;49.472;17.970;2024-02-04T14:25:10;3.13;;;1.30;;
79478;SDS011;68943;49.472;17.970;2024-02-04T14:27:36;2.60;;;1.35;;
79478;SDS011;68943;49.472;17.970;2024-02-04T14:30:03;3.05;;;1.35;;
79478;SDS011;68943;49.472;17.970;2024-02-04T14:32:29;2.30;;;1.08;;
79478;SDS011;68943;49.472;17.970;2024-02-04T14:34:55;1.73;;;0.93;;
79478;SDS011;68943;49.472;17.970;2024-02-04T14:37:21;2.03;;;1.60;;